Time;durP1;ratioP1;P1;durP2;ratioP2;P2;SDS_P1;SDS_P2;PMS_P1;PMS_P2;Temp;Humidity;BMP_temperature;BMP_pressure;BME280_temperature;BME280_humidity;BME280_pressure;Samples;Min_cycle;Max_cycle;Signal;HPM_P1;HPM_P2
2021/06/27 00:00:30;;;;;;;27.93;25.27;;;17.00;99.90;;;;;;5118494;28;20543;-75
2021/06/27 00:02:57;;;;;;;26.50;24.37;;;17.00;99.90;;;;;;5114266;27;20617;-74
2021/06/27 00:05:26;;;;;;;26.17;23.97;;;17.00;99.90;;;;;;5122224;27;20484;-75
2021/06/27 00:07:56;;;;;;;26.00;23.93;;;17.00;99.90;;;;;;5132161;27;20462;-75
2021/06/27 00:10:26;;;;;;;25.97;23.77;;;16.90;99.90;;;;;;5120708;27;20954;-75
2021/06/27 00:12:54;;;;;;;28.80;26.30;;;16.90;99.90;;;;;;5119866;27;20982;-74
2021/06/27 00:15:24;;;;;;;26.70;24.50;;;16.80;99.90;;;;;;5125117;27;20789;-73
2021/06/27 00:17:52;;;;;;;28.27;25.77;;;16.70;99.90;;;;;;5125669;27;20461;-75
2021/06/27 00:20:24;;;;;;;27.83;25.47;;;16.70;99.90;;;;;;5124655;27;20466;-74
2021/06/27 00:22:51;;;;;;;28.13;25.63;;;16.60;99.90;;;;;;5122886;27;20487;-73
2021/06/27 00:25:21;;;;;;;30.57;27.90;;;16.60;99.90;;;;;;5123772;27;20480;-73
2021/06/27 00:27:50;;;;;;;28.67;26.37;;;16.50;99.90;;;;;;5115724;27;20755;-75
2021/06/27 00:30:20;;;;;;;28.27;25.87;;;16.50;99.90;;;;;;5118899;27;20825;-75
2021/06/27 00:32:47;;;;;;;29.40;27.10;;;16.50;99.90;;;;;;5123288;27;20464;-74
2021/06/27 00:35:18;;;;;;;29.87;27.17;;;16.40;99.90;;;;;;5125476;27;20459;-75
2021/06/27 00:37:45;;;;;;;29.93;27.47;;;16.40;99.90;;;;;;5124313;27;20459;-74
2021/06/27 00:40:15;;;;;;;28.97;26.00;;;16.40;99.90;;;;;;5125905;27;20463;-75
2021/06/27 00:42:44;;;;;;;30.50;27.70;;;16.30;99.90;;;;;;5123514;27;20924;-76
2021/06/27 00:45:13;;;;;;;27.13;24.93;;;16.20;99.90;;;;;;5124866;27;20476;-76
2021/06/27 00:47:43;;;;;;;28.30;26.10;;;16.10;99.90;;;;;;5122120;27;20476;-74
2021/06/27 00:50:12;;;;;;;29.33;26.97;;;16.10;99.90;;;;;;5116392;27;20872;-75
2021/06/27 00:52:40;;;;;;;30.63;28.03;;;16.10;99.90;;;;;;5124828;27;20459;-73
2021/06/27 00:55:09;;;;;;;30.17;27.67;;;16.10;99.90;;;;;;5121054;27;20558;-75
2021/06/27 00:57:38;;;;;;;30.57;28.13;;;16.10;99.90;;;;;;5121337;27;20457;-76
2021/06/27 01:00:09;;;;;;;30.77;28.13;;;16.10;99.90;;;;;;5118821;27;20464;-73
2021/06/27 01:02:37;;;;;;;30.60;27.90;;;16.10;99.90;;;;;;5121620;27;20456;-74
2021/06/27 01:05:07;;;;;;;29.93;27.40;;;16.00;99.90;;;;;;5122413;27;20465;-74
2021/06/27 01:07:34;;;;;;;29.50;26.90;;;16.00;99.90;;;;;;5127533;27;20452;-74
2021/06/27 01:10:02;;;;;;;30.23;27.63;;;15.90;99.90;;;;;;5118889;27;20468;-75
2021/06/27 01:12:28;;;;;;;29.07;26.53;;;15.80;99.90;;;;;;5119297;27;20468;-75
2021/06/27 01:14:56;;;;;;;31.27;28.30;;;15.90;99.90;;;;;;5122360;27;20487;-73
2021/06/27 01:17:24;;;;;;;28.57;25.33;;;15.90;99.90;;;;;;5124588;27;20482;-72
2021/06/27 01:19:51;;;;;;;28.60;26.20;;;16.00;99.90;;;;;;5123773;27;20459;-75
2021/06/27 01:22:19;;;;;;;28.63;26.07;;;16.00;99.90;;;;;;5120447;27;20504;-74
2021/06/27 01:24:46;;;;;;;30.87;28.00;;;15.90;99.90;;;;;;5124107;27;20460;-73
2021/06/27 01:27:13;;;;;;;30.20;27.50;;;15.90;99.90;;;;;;5122136;27;20484;-74
2021/06/27 01:29:40;;;;;;;31.40;28.30;;;15.90;99.90;;;;;;5116376;27;21017;-76
2021/06/27 01:32:10;;;;;;;31.97;28.80;;;16.10;99.90;;;;;;5125420;27;20981;-73
2021/06/27 01:34:39;;;;;;;29.43;26.53;;;16.20;99.90;;;;;;5123318;27;20452;-74
2021/06/27 01:37:06;;;;;;;31.67;28.60;;;16.20;99.90;;;;;;5116388;27;20453;-75
2021/06/27 01:39:35;;;;;;;29.80;27.23;;;16.10;99.90;;;;;;5122307;27;20484;-73
2021/06/27 01:42:04;;;;;;;32.47;29.53;;;16.10;99.90;;;;;;5121950;27;20464;-74
2021/06/27 01:44:30;;;;;;;32.67;29.57;;;16.10;99.90;;;;;;5116833;27;20452;-73
2021/06/27 01:46:58;;;;;;;32.57;29.53;;;16.10;99.90;;;;;;5122973;27;20483;-73
2021/06/27 01:49:26;;;;;;;30.23;27.63;;;16.10;99.90;;;;;;5118717;27;20461;-74
2021/06/27 01:51:53;;;;;;;32.87;29.97;;;16.10;99.90;;;;;;5116895;27;20461;-73
2021/06/27 01:54:21;;;;;;;31.83;29.13;;;16.00;99.90;;;;;;5116620;27;20449;-74
2021/06/27 01:56:50;;;;;;;34.20;31.20;;;16.00;99.90;;;;;;5114853;27;20469;-73
2021/06/27 01:59:17;;;;;;;33.60;30.40;;;15.90;99.90;;;;;;5122327;27;20514;-75
2021/06/27 02:01:43;;;;;;;29.83;27.37;;;15.90;99.90;;;;;;5119056;27;20465;-73
2021/06/27 02:04:12;;;;;;;33.03;30.20;;;15.80;99.90;;;;;;5119311;27;20460;-75
2021/06/27 02:06:42;;;;;;;31.43;28.60;;;15.80;99.90;;;;;;5115244;27;20546;-75
2021/06/27 02:09:12;;;;;;;32.60;29.50;;;15.80;99.90;;;;;;5117119;27;20938;-74
2021/06/27 02:11:40;;;;;;;32.90;29.60;;;15.80;99.90;;;;;;5115399;27;20457;-73
2021/06/27 02:14:09;;;;;;;32.93;29.90;;;15.80;99.90;;;;;;5118314;27;20979;-74
2021/06/27 02:16:37;;;;;;;33.03;29.93;;;15.80;99.90;;;;;;5125102;27;20487;-74
2021/06/27 02:19:05;;;;;;;31.87;28.80;;;15.80;99.90;;;;;;5118255;27;20483;-75
2021/06/27 02:21:36;;;;;;;33.30;30.50;;;15.80;99.90;;;;;;5117066;27;20463;-75
2021/06/27 02:24:05;;;;;;;32.20;29.00;;;15.70;99.90;;;;;;5117992;27;20584;-73
2021/06/27 02:26:33;;;;;;;33.00;29.90;;;15.70;99.90;;;;;;5125002;27;20476;-74
2021/06/27 02:29:00;;;;;;;35.83;32.53;;;15.70;99.90;;;;;;5120012;27;20510;-75
2021/06/27 02:31:30;;;;;;;33.47;30.50;;;15.60;99.90;;;;;;5114915;27;20851;-73
2021/06/27 02:33:57;;;;;;;35.13;31.83;;;15.50;99.90;;;;;;5121354;27;20452;-76
2021/06/27 02:36:25;;;;;;;32.00;28.93;;;15.40;99.90;;;;;;5116510;27;20462;-76
2021/06/27 02:38:52;;;;;;;35.40;32.13;;;15.40;99.90;;;;;;5114874;27;20453;-74
2021/06/27 02:41:20;;;;;;;32.50;29.40;;;15.40;99.90;;;;;;5123892;27;20977;-73
2021/06/27 02:43:47;;;;;;;36.67;33.17;;;15.30;99.90;;;;;;5122459;27;20452;-74
2021/06/27 02:46:15;;;;;;;35.80;32.03;;;15.40;99.90;;;;;;5119622;27;20476;-75
2021/06/27 02:48:44;;;;;;;33.80;30.90;;;15.40;99.90;;;;;;5119118;27;20457;-76
2021/06/27 02:51:11;;;;;;;34.17;31.07;;;15.30;99.90;;;;;;5114431;27;20789;-75
2021/06/27 02:53:38;;;;;;;33.73;30.60;;;15.20;99.90;;;;;;5120635;27;20454;-76
2021/06/27 02:56:08;;;;;;;34.90;31.60;;;15.20;99.90;;;;;;5123540;27;20476;-74
2021/06/27 02:58:37;;;;;;;35.40;31.77;;;15.10;99.90;;;;;;5116569;27;20452;-74
2021/06/27 03:01:04;;;;;;;34.63;31.40;;;15.00;99.90;;;;;;5119745;27;20462;-75
2021/06/27 03:03:31;;;;;;;34.43;30.70;;;15.00;99.90;;;;;;5115795;27;20950;-75
2021/06/27 03:06:00;;;;;;;35.60;32.40;;;15.00;99.90;;;;;;5117879;27;20480;-76
2021/06/27 03:08:27;;;;;;;36.80;33.23;;;15.00;99.90;;;;;;5124727;27;20452;-74
2021/06/27 03:10:54;;;;;;;33.43;30.20;;;15.10;99.90;;;;;;5119429;27;20471;-76
2021/06/27 03:13:21;;;;;;;35.50;31.83;;;15.10;99.90;;;;;;5116304;27;20467;-74
2021/06/27 03:15:47;;;;;;;35.00;32.00;;;15.20;99.90;;;;;;5121784;27;20456;-75
2021/06/27 03:18:15;;;;;;;33.30;30.30;;;15.20;99.90;;;;;;5114747;27;20468;-76
2021/06/27 03:20:42;;;;;;;34.73;31.50;;;15.20;99.90;;;;;;5120142;27;20458;-74
2021/06/27 03:23:12;;;;;;;36.33;32.77;;;15.30;99.90;;;;;;5122444;27;20969;-74
2021/06/27 03:25:40;;;;;;;32.57;29.50;;;15.40;99.90;;;;;;5115340;27;20453;-76
2021/06/27 03:28:07;;;;;;;34.27;31.27;;;15.50;99.90;;;;;;5120812;27;20548;-74
2021/06/27 03:30:34;;;;;;;34.73;31.63;;;15.50;99.90;;;;;;5118759;27;20460;-76
2021/06/27 03:33:01;;;;;;;37.07;30.87;;;15.50;99.90;;;;;;5121880;27;20951;-73
2021/06/27 03:35:28;;;;;;;34.30;30.87;;;15.50;99.90;;;;;;5123887;27;20469;-77
2021/06/27 03:38:02;;;;;;;37.53;33.43;;;15.50;99.90;;;;;;5116559;27;20464;-75
2021/06/27 03:40:30;;;;;;;36.30;32.60;;;15.20;99.90;;;;;;5115782;27;20942;-76
2021/06/27 03:43:01;;;;;;;38.10;34.20;;;15.20;99.90;;;;;;5120505;27;20826;-75
2021/06/27 03:45:30;;;;;;;34.90;31.70;;;15.30;99.90;;;;;;5121784;27;20457;-76
2021/06/27 03:47:57;;;;;;;36.67;33.13;;;15.50;99.90;;;;;;5122477;28;20516;-74
2021/06/27 03:50:24;;;;;;;35.53;31.97;;;15.80;99.90;;;;;;5119299;28;20460;-75
2021/06/27 03:52:51;;;;;;;34.23;30.90;;;15.90;99.90;;;;;;5113227;28;20838;-76
2021/06/27 03:55:19;;;;;;;34.70;31.50;;;16.10;99.90;;;;;;5114799;27;20480;-76
2021/06/27 03:57:47;;;;;;;34.10;30.80;;;16.20;99.90;;;;;;5118788;28;20959;-74
2021/06/27 04:00:16;;;;;;;32.47;29.33;;;16.20;99.90;;;;;;5121365;28;20460;-76
2021/06/27 04:02:44;;;;;;;29.67;26.83;;;16.30;99.90;;;;;;5110758;28;20927;-73
2021/06/27 04:05:13;;;;;;;33.00;28.80;;;16.40;99.90;;;;;;5117860;28;20467;-75
2021/06/27 04:07:40;;;;;;;32.57;28.63;;;16.50;99.90;;;;;;5112089;28;20489;-73
2021/06/27 04:10:09;;;;;;;31.53;28.37;;;16.70;99.90;;;;;;5113881;28;20857;-73
2021/06/27 04:12:36;;;;;;;31.17;28.20;;;16.80;99.90;;;;;;5112754;28;20508;-74
2021/06/27 04:15:05;;;;;;;31.10;28.27;;;16.90;99.90;;;;;;5119298;28;20477;-76
2021/06/27 04:17:33;;;;;;;32.07;28.60;;;17.10;99.90;;;;;;5119694;28;20460;-73
2021/06/27 04:20:00;;;;;;;29.90;27.40;;;17.20;99.90;;;;;;5117290;28;20487;-76
2021/06/27 04:22:27;;;;;;;30.97;28.40;;;17.20;99.90;;;;;;5114134;28;20480;-73
2021/06/27 04:24:54;;;;;;;33.70;30.23;;;17.20;99.90;;;;;;5115548;28;20580;-75
2021/06/27 04:27:21;;;;;;;33.80;30.33;;;17.10;99.90;;;;;;5124479;28;20501;-73
2021/06/27 04:29:48;;;;;;;42.53;31.70;;;16.80;99.90;;;;;;5119742;28;20452;-75
2021/06/27 04:32:16;;;;;;;34.53;31.03;;;16.70;99.90;;;;;;5115700;28;20519;-73
2021/06/27 04:34:43;;;;;;;34.47;30.97;;;16.90;99.90;;;;;;5114222;28;20540;-74
2021/06/27 04:37:10;;;;;;;31.60;28.70;;;17.00;99.90;;;;;;5120744;28;20481;-73
2021/06/27 04:39:37;;;;;;;28.57;25.53;;;17.20;99.90;;;;;;5117461;28;20461;-73
2021/06/27 04:42:04;;;;;;;27.90;25.17;;;17.20;99.90;;;;;;5120373;28;20452;-74
2021/06/27 04:44:32;;;;;;;24.97;22.77;;;17.30;99.90;;;;;;5123281;28;20463;-76
2021/06/27 04:46:59;;;;;;;25.00;22.90;;;17.50;99.90;;;;;;5117793;27;21038;-74
2021/06/27 04:49:28;;;;;;;22.60;20.50;;;17.70;99.90;;;;;;5122263;27;20465;-75
2021/06/27 04:51:54;;;;;;;22.93;20.80;;;17.80;99.90;;;;;;5121646;27;20512;-74
2021/06/27 04:54:21;;;;;;;23.40;21.23;;;18.00;99.90;;;;;;5122373;27;20490;-76
2021/06/27 04:56:48;;;;;;;23.13;21.00;;;18.10;99.90;;;;;;5129985;27;20557;-74
2021/06/27 04:59:15;;;;;;;23.13;21.03;;;18.30;99.90;;;;;;5123660;27;20452;-76
2021/06/27 05:01:42;;;;;;;24.67;22.57;;;18.30;99.90;;;;;;5123052;27;20475;-74
2021/06/27 05:04:08;;;;;;;25.47;23.27;;;18.30;99.90;;;;;;5123854;27;20866;-73
2021/06/27 05:06:36;;;;;;;26.60;24.20;;;18.20;99.90;;;;;;5116046;27;20845;-75
2021/06/27 05:09:05;;;;;;;28.50;25.70;;;18.10;99.90;;;;;;5125515;27;20479;-74
2021/06/27 05:11:33;;;;;;;27.63;25.33;;;18.00;99.90;;;;;;5118196;27;20461;-74
2021/06/27 05:14:00;;;;;;;31.30;28.23;;;18.10;99.90;;;;;;5121056;27;20479;-73
2021/06/27 05:16:27;;;;;;;27.67;24.77;;;18.20;99.90;;;;;;5120633;27;20457;-74
2021/06/27 05:18:54;;;;;;;29.13;26.50;;;18.30;99.90;;;;;;5119080;27;20461;-75
2021/06/27 05:21:21;;;;;;;26.43;23.73;;;18.40;99.90;;;;;;5123571;27;20471;-75
2021/06/27 05:23:50;;;;;;;27.47;24.83;;;18.60;99.90;;;;;;5123506;27;20448;-74
2021/06/27 05:26:18;;;;;;;27.27;24.73;;;18.60;99.90;;;;;;5120324;27;20459;-75
2021/06/27 05:28:45;;;;;;;25.33;23.30;;;18.70;99.90;;;;;;5120085;27;20453;-75
2021/06/27 05:31:13;;;;;;;25.90;23.43;;;18.80;99.90;;;;;;5116531;27;20453;-73
2021/06/27 05:33:40;;;;;;;26.60;24.20;;;19.00;99.90;;;;;;5123108;27;20460;-74
2021/06/27 05:36:07;;;;;;;25.63;23.30;;;19.20;99.90;;;;;;5124457;27;20464;-74
2021/06/27 05:38:34;;;;;;;25.33;23.03;;;19.30;99.90;;;;;;5122844;27;20463;-73
2021/06/27 05:41:02;;;;;;;24.20;22.20;;;19.50;99.90;;;;;;5122080;27;20444;-75
2021/06/27 05:43:29;;;;;;;23.67;21.67;;;19.60;99.90;;;;;;5123790;27;20490;-73
2021/06/27 05:45:56;;;;;;;21.20;19.60;;;19.90;99.90;;;;;;5123663;27;20460;-76
2021/06/27 05:48:23;;;;;;;22.70;20.70;;;20.00;99.90;;;;;;5123745;27;20488;-73
2021/06/27 05:50:50;;;;;;;22.33;20.50;;;20.30;99.90;;;;;;5125312;27;20797;-73
2021/06/27 05:53:17;;;;;;;26.40;21.83;;;20.50;99.90;;;;;;5122508;27;20470;-74
2021/06/27 05:55:44;;;;;;;21.93;20.17;;;20.70;99.90;;;;;;5116326;27;20488;-75
2021/06/27 05:58:13;;;;;;;21.90;19.97;;;20.90;99.90;;;;;;5115652;27;20452;-74
2021/06/27 06:00:39;;;;;;;21.90;20.20;;;20.90;99.90;;;;;;5117397;27;20707;-73
2021/06/27 06:03:06;;;;;;;21.93;20.30;;;21.00;99.90;;;;;;5123117;27;20851;-73
2021/06/27 06:05:33;;;;;;;21.97;20.23;;;21.10;99.90;;;;;;5119426;27;20852;-74
2021/06/27 06:08:00;;;;;;;22.33;20.53;;;21.20;99.90;;;;;;5118511;27;20477;-75
2021/06/27 06:10:27;;;;;;;21.90;20.00;;;21.40;99.90;;;;;;5118766;27;20827;-74
2021/06/27 06:12:54;;;;;;;22.53;20.40;;;21.60;99.90;;;;;;5118345;27;20799;-75
2021/06/27 06:15:22;;;;;;;21.97;20.07;;;21.90;99.90;;;;;;5124170;27;20464;-75
2021/06/27 06:17:49;;;;;;;22.80;20.70;;;22.00;99.90;;;;;;5120292;27;20469;-74
2021/06/27 06:20:16;;;;;;;20.60;18.90;;;22.20;99.90;;;;;;5119370;27;20542;-73
2021/06/27 06:22:44;;;;;;;22.57;20.37;;;22.20;99.90;;;;;;5120712;27;20919;-75
2021/06/27 06:25:11;;;;;;;21.20;19.70;;;22.30;99.90;;;;;;5120932;27;20885;-73
2021/06/27 06:27:39;;;;;;;21.23;19.67;;;22.50;99.90;;;;;;5117851;27;20580;-76
2021/06/27 06:30:07;;;;;;;21.90;20.00;;;22.50;99.90;;;;;;5114074;27;20496;-74
2021/06/27 06:32:35;;;;;;;21.37;19.67;;;22.50;99.90;;;;;;5120813;27;20553;-75
2021/06/27 06:35:03;;;;;;;20.40;18.67;;;22.60;99.90;;;;;;5124259;27;20471;-75
2021/06/27 06:37:30;;;;;;;21.00;19.30;;;22.60;99.90;;;;;;5119579;27;20456;-75
2021/06/27 06:39:57;;;;;;;21.00;19.33;;;22.60;99.90;;;;;;5116461;27;21024;-75
2021/06/27 06:42:24;;;;;;;20.47;19.07;;;22.60;99.90;;;;;;5121234;27;20528;-74
2021/06/27 06:44:51;;;;;;;19.20;17.80;;;22.80;99.90;;;;;;5116885;27;20453;-75
2021/06/27 06:47:18;;;;;;;20.50;19.10;;;23.00;99.90;;;;;;5120934;27;20487;-76
2021/06/27 06:49:47;;;;;;;21.03;19.53;;;23.30;99.90;;;;;;5118107;27;20468;-73
2021/06/27 06:52:14;;;;;;;21.47;19.60;;;23.20;99.90;;;;;;5119819;27;20452;-74
2021/06/27 06:54:41;;;;;;;20.80;19.10;;;23.10;99.90;;;;;;5114247;27;20482;-76
2021/06/27 06:57:08;;;;;;;20.97;19.47;;;23.10;99.90;;;;;;5124106;27;20468;-73
2021/06/27 06:59:35;;;;;;;21.40;19.60;;;23.30;99.90;;;;;;5124536;27;20958;-75
2021/06/27 07:02:02;;;;;;;21.40;19.70;;;23.40;99.90;;;;;;5116507;27;20642;-75
2021/06/27 07:04:29;;;;;;;20.97;19.27;;;23.60;99.90;;;;;;5118271;27;20480;-74
2021/06/27 07:06:57;;;;;;;22.27;20.67;;;23.50;99.90;;;;;;5115071;27;20463;-74
2021/06/27 07:09:24;;;;;;;20.77;18.97;;;23.50;99.90;;;;;;5117515;27;20464;-75
2021/06/27 07:11:51;;;;;;;21.00;19.33;;;23.60;99.90;;;;;;5113617;27;20467;-74
2021/06/27 07:14:18;;;;;;;20.87;19.17;;;23.70;99.90;;;;;;5113856;27;20573;-74
2021/06/27 07:16:45;;;;;;;21.10;19.33;;;23.90;99.90;;;;;;5120661;27;20971;-75
2021/06/27 07:19:12;;;;;;;22.00;20.40;;;24.00;99.90;;;;;;5121128;27;20483;-75
2021/06/27 07:21:43;;;;;;;20.93;19.43;;;24.10;99.90;;;;;;5118499;27;20461;-73
2021/06/27 07:24:11;;;;;;;20.20;18.80;;;23.90;99.90;;;;;;5120181;27;20463;-74
2021/06/27 07:26:39;;;;;;;20.47;18.87;;;24.10;99.90;;;;;;5120610;27;20451;-74
2021/06/27 07:29:05;;;;;;;20.67;19.07;;;24.10;99.90;;;;;;5120615;27;20571;-74
2021/06/27 07:31:32;;;;;;;20.73;18.90;;;24.20;99.90;;;;;;5113780;27;20467;-73
2021/06/27 07:34:00;;;;;;;20.80;19.10;;;24.50;99.90;;;;;;5117231;27;20494;-74
2021/06/27 07:36:28;;;;;;;21.43;19.73;;;24.60;99.90;;;;;;5117514;27;20472;-75
2021/06/27 07:38:55;;;;;;;20.40;18.90;;;24.60;99.90;;;;;;5121402;27;20521;-75
2021/06/27 07:41:23;;;;;;;20.60;19.10;;;24.70;99.90;;;;;;5113753;27;21172;-75
2021/06/27 07:43:50;;;;;;;20.00;18.50;;;25.00;99.90;;;;;;5119445;27;20463;-75
2021/06/27 07:46:18;;;;;;;20.87;19.00;;;25.20;99.90;;;;;;5119211;27;20894;-75
2021/06/27 07:48:45;;;;;;;21.30;19.80;;;25.30;99.90;;;;;;5118927;27;20735;-75
2021/06/27 07:51:12;;;;;;;19.50;18.10;;;25.10;99.90;;;;;;5116201;28;20452;-76
2021/06/27 07:53:39;;;;;;;20.43;19.07;;;25.50;99.90;;;;;;5115340;28;20464;-74
2021/06/27 07:56:06;;;;;;;20.67;19.27;;;26.00;99.90;;;;;;5116448;27;20495;-75
2021/06/27 07:58:34;;;;;;;21.10;19.50;;;26.10;99.90;;;;;;5113755;28;20922;-75
2021/06/27 08:01:01;;;;;;;19.27;18.00;;;26.40;99.90;;;;;;5123115;28;20460;-74
2021/06/27 08:03:27;;;;;;;19.03;17.53;;;26.80;99.90;;;;;;5122095;28;20456;-75
2021/06/27 08:05:55;;;;;;;20.77;19.07;;;27.20;99.90;;;;;;5118318;28;20914;-74
2021/06/27 08:08:22;;;;;;;19.77;18.30;;;27.70;99.90;;;;;;5115577;28;20570;-76
2021/06/27 08:10:49;;;;;;;19.13;18.03;;;28.20;99.90;;;;;;5118614;28;20457;-74
2021/06/27 08:13:16;;;;;;;19.47;18.23;;;28.60;99.90;;;;;;5115794;28;20832;-75
2021/06/27 08:15:45;;;;;;;20.73;19.20;;;28.90;99.90;;;;;;5118117;28;20890;-75
2021/06/27 08:18:12;;;;;;;19.63;18.27;;;29.20;99.90;;;;;;5115481;28;20481;-74
2021/06/27 08:20:39;;;;;;;20.47;18.97;;;29.10;99.90;;;;;;5119042;28;20862;-75
2021/06/27 08:23:07;;;;;;;19.10;17.73;;;29.20;99.90;;;;;;5119853;27;20480;-75
2021/06/27 08:25:33;;;;;;;20.47;19.07;;;28.60;99.90;;;;;;5116161;27;20464;-74
2021/06/27 08:28:01;;;;;;;20.57;18.90;;;28.50;99.90;;;;;;5124075;27;20488;-74
2021/06/27 08:30:29;;;;;;;20.13;18.73;;;28.90;99.90;;;;;;5122537;27;20459;-75
2021/06/27 08:32:57;;;;;;;20.67;18.87;;;29.30;99.90;;;;;;5114557;27;20823;-75
2021/06/27 08:35:25;;;;;;;20.10;18.83;;;29.80;99.90;;;;;;5119740;27;20452;-75
2021/06/27 08:37:53;;;;;;;20.83;19.43;;;30.40;99.90;;;;;;5122104;27;20456;-75
2021/06/27 08:40:21;;;;;;;20.27;18.87;;;30.60;99.90;;;;;;5121454;27;20465;-74
2021/06/27 08:42:48;;;;;;;20.70;19.37;;;30.50;99.90;;;;;;5121629;27;20455;-75
2021/06/27 08:45:17;;;;;;;19.50;18.20;;;31.20;99.90;;;;;;5128135;27;20456;-74
2021/06/27 08:47:45;;;;;;;21.13;19.43;;;31.10;99.90;;;;;;5124363;27;20981;-75
2021/06/27 08:50:15;;;;;;;20.67;19.37;;;31.00;99.90;;;;;;5119687;27;20460;-75
2021/06/27 08:52:43;;;;;;;20.43;19.10;;;31.20;99.90;;;;;;5123363;27;20824;-75
2021/06/27 08:55:12;;;;;;;19.83;18.53;;;31.50;99.90;;;;;;5123517;27;20475;-76
2021/06/27 08:57:40;;;;;;;18.93;17.73;;;30.80;99.90;;;;;;5122416;27;20476;-75
2021/06/27 09:00:09;;;;;;;20.13;18.83;;;31.10;99.90;;;;;;5120836;27;20500;-75
2021/06/27 09:02:36;;;;;;;19.17;17.77;;;31.30;99.90;;;;;;5122884;27;20541;-74
2021/06/27 09:05:03;;;;;;;19.00;17.50;;;31.90;99.90;;;;;;5119132;27;20456;-75
2021/06/27 09:07:33;;;;;;;19.57;18.27;;;31.70;99.50;;;;;;5116467;27;20461;-75
2021/06/27 09:10:04;;;;;;;19.67;18.17;;;32.40;98.90;;;;;;5120644;27;20460;-75
2021/06/27 09:12:47;;;;;;;19.13;18.07;;;32.80;97.60;;;;;;5123436;27;20464;-74
2021/06/27 09:15:15;;;;;;;19.40;18.07;;;33.40;97.30;;;;;;5121020;27;20484;-73
2021/06/27 09:17:44;;;;;;;18.80;17.50;;;33.70;97.10;;;;;;5114600;27;20461;-75
2021/06/27 09:20:12;;;;;;;18.17;17.07;;;33.30;95.10;;;;;;5121152;27;20460;-76
2021/06/27 09:22:42;;;;;;;19.20;17.90;;;33.60;95.60;;;;;;5122389;27;20488;-74
2021/06/27 09:25:21;;;;;;;19.40;18.10;;;33.50;93.80;;;;;;5120149;27;20986;-74
2021/06/27 09:27:59;;;;;;;19.07;17.77;;;33.40;94.20;;;;;;5112608;27;20452;-75
2021/06/27 09:30:26;;;;;;;18.10;16.90;;;33.30;94.30;;;;;;5122659;27;20464;-75
2021/06/27 09:32:59;;;;;;;19.13;17.83;;;33.30;93.50;;;;;;5125426;27;20456;-75
2021/06/27 09:35:41;;;;;;;19.87;18.50;;;33.40;93.70;;;;;;5125371;27;20998;-74
2021/06/27 09:38:27;;;;;;;20.13;18.30;;;33.50;93.50;;;;;;5117100;27;20457;-75
2021/06/27 09:40:56;;;;;;;19.97;18.47;;;33.70;93.60;;;;;;5116436;27;20958;-74
2021/06/27 09:43:24;;;;;;;18.40;17.10;;;32.80;93.50;;;;;;5120560;27;20456;-73
2021/06/27 09:45:53;;;;;;;18.97;17.63;;;32.10;94.50;;;;;;5123417;27;20834;-73
2021/06/27 09:48:20;;;;;;;18.43;17.00;;;32.50;94.20;;;;;;5116976;27;20488;-75
2021/06/27 09:50:47;;;;;;;18.60;17.37;;;32.40;94.70;;;;;;5119431;27;20461;-75
2021/06/27 09:53:35;;;;;;;19.23;17.50;;;32.00;95.70;;;;;;5118468;27;20487;-73
2021/06/27 09:56:05;;;;;;;19.40;18.00;;;32.30;94.80;;;;;;5120362;27;20476;-75
2021/06/27 09:58:32;;;;;;;19.37;18.00;;;32.70;94.70;;;;;;5119031;27;20559;-75
2021/06/27 10:00:59;;;;;;;18.23;17.03;;;33.40;92.90;;;;;;5114977;27;20870;-76
2021/06/27 10:03:30;;;;;;;18.30;17.23;;;33.10;93.10;;;;;;5113537;27;20849;-74
2021/06/27 10:06:07;;;;;;;18.37;17.37;;;32.50;92.60;;;;;;5114102;27;20958;-73
2021/06/27 10:08:36;;;;;;;18.20;17.00;;;32.70;92.00;;;;;;5112111;27;20494;-74
2021/06/27 10:11:13;;;;;;;19.00;17.90;;;32.80;91.90;;;;;;5114381;27;20974;-75
2021/06/27 10:13:41;;;;;;;18.67;17.57;;;33.70;91.20;;;;;;5108099;27;20714;-74
2021/06/27 10:16:08;;;;;;;19.30;17.80;;;34.30;90.00;;;;;;5115120;27;20459;-76
2021/06/27 10:18:35;;;;;;;19.40;18.30;;;34.10;90.10;;;;;;5116446;27;20478;-75
2021/06/27 10:21:02;;;;;;;18.60;17.50;;;33.90;90.20;;;;;;5114235;27;20491;-73
2021/06/27 10:23:29;;;;;;;17.93;16.93;;;34.20;90.10;;;;;;5106850;27;20542;-74
2021/06/27 10:25:57;;;;;;;18.17;17.07;;;33.10;90.80;;;;;;5116163;27;20460;-75
2021/06/27 10:28:24;;;;;;;17.20;16.27;;;33.50;90.20;;;;;;5111767;27;20492;-75
2021/06/27 10:30:51;;;;;;;18.00;17.00;;;34.40;88.00;;;;;;5114522;27;20471;-75
2021/06/27 10:33:20;;;;;;;18.27;17.00;;;35.00;86.10;;;;;;5105763;27;20457;-74
2021/06/27 10:35:51;;;;;;;17.43;16.43;;;35.50;81.70;;;;;;5112146;27;20454;-76
2021/06/27 10:38:22;;;;;;;17.67;16.57;;;35.70;80.50;;;;;;5113839;27;20543;-73
2021/06/27 10:40:51;;;;;;;17.27;16.27;;;35.00;83.10;;;;;;5119703;27;20453;-75
2021/06/27 10:43:19;;;;;;;17.90;16.97;;;35.70;81.10;;;;;;5111113;27;20462;-74
2021/06/27 10:46:00;;;;;;;17.13;16.17;;;36.30;78.30;;;;;;5115731;27;21017;-75
2021/06/27 10:48:40;;;;;;;17.70;16.80;;;37.20;75.50;;;;;;5111767;27;20482;-74
2021/06/27 10:51:10;;;;;;;17.07;15.90;;;36.50;77.40;;;;;;5115785;27;20455;-75
2021/06/27 10:54:12;;;;;;;17.43;16.43;;;35.70;77.30;;;;;;5115514;27;20465;-75
2021/06/27 10:56:59;;;;;;;16.63;15.63;;;36.40;75.90;;;;;;5113629;27;20927;-76
2021/06/27 11:00:00;;;;;;;17.40;16.00;;;37.10;72.80;;;;;;5112686;27;20513;-75
2021/06/27 11:02:38;;;;;;;16.70;15.40;;;35.70;73.00;;;;;;5028749;28;20506;-75
2021/06/27 11:05:46;;;;;;;16.93;16.00;;;35.80;73.40;;;;;;5095258;27;20457;-74
2021/06/27 11:08:33;;;;;;;15.77;14.87;;;35.70;74.30;;;;;;5110502;27;21003;-75
2021/06/27 11:11:02;;;;;;;16.20;15.30;;;36.80;72.40;;;;;;5111832;27;21050;-76
2021/06/27 11:13:29;;;;;;;16.73;15.83;;;37.50;71.30;;;;;;5113774;27;20457;-74
2021/06/27 11:16:03;;;;;;;16.33;15.33;;;37.60;68.20;;;;;;5116262;27;20464;-73
2021/06/27 11:18:35;;;;;;;15.20;14.40;;;37.60;65.70;;;;;;5111906;27;20460;-76
2021/06/27 11:21:06;;;;;;;16.03;15.13;;;37.80;64.40;;;;;;5116344;27;20832;-76
2021/06/27 11:24:01;;;;;;;15.60;14.77;;;37.60;66.40;;;;;;5116042;27;20481;-74
2021/06/27 11:27:01;;;;;;;16.43;15.43;;;37.80;64.80;;;;;;5065094;27;20456;-76
2021/06/27 11:29:46;;;;;;;16.00;15.20;;;38.30;66.00;;;;;;5111621;27;20480;-75
2021/06/27 11:32:48;;;;;;;16.30;15.50;;;38.40;62.10;;;;;;5112555;27;20484;-74
2021/06/27 11:35:46;;;;;;;16.10;15.30;;;37.60;63.70;;;;;;5109850;27;20475;-75
2021/06/27 11:38:36;;;;;;;15.87;14.97;;;37.10;62.90;;;;;;5031776;28;20490;-75
2021/06/27 11:41:04;;;;;;;16.30;15.23;;;37.60;61.10;;;;;;5105826;27;20464;-74
2021/06/27 11:43:55;;;;;;;15.97;14.80;;;37.20;63.30;;;;;;5110232;27;20456;-77
2021/06/27 11:46:27;;;;;;;14.73;14.00;;;37.90;62.50;;;;;;5114228;27;20531;-75
2021/06/27 11:48:56;;;;;;;15.90;15.00;;;37.70;60.50;;;;;;5116642;27;20479;-74
2021/06/27 11:51:34;;;;;;;15.40;14.50;;;37.60;60.20;;;;;;5112643;28;20457;-75
2021/06/27 11:54:02;;;;;;;16.30;15.30;;;36.90;60.10;;;;;;5111119;28;20647;-76
2021/06/27 11:56:29;;;;;;;15.70;14.80;;;36.50;62.70;;;;;;5112667;27;20456;-75
2021/06/27 11:59:10;;;;;;;15.57;14.20;;;36.60;60.00;;;;;;5120839;27;20473;-73
2021/06/27 12:01:37;;;;;;;15.30;14.50;;;37.60;61.50;;;;;;5125024;27;20485;-76
2021/06/27 12:04:05;;;;;;;15.30;14.50;;;38.00;58.80;;;;;;5118397;27;20900;-75
2021/06/27 12:06:35;;;;;;;16.00;15.20;;;37.90;58.10;;;;;;5117739;27;20483;-74
2021/06/27 12:09:05;;;;;;;15.13;14.33;;;37.40;58.80;;;;;;5119185;27;20487;-75
2021/06/27 12:11:32;;;;;;;15.60;14.80;;;37.10;60.00;;;;;;5116101;27;20461;-74
2021/06/27 12:13:59;;;;;;;15.63;14.83;;;38.40;60.00;;;;;;5119016;27;20460;-74
2021/06/27 12:16:32;;;;;;;15.90;15.10;;;38.70;57.60;;;;;;5125385;27;20579;-76
2021/06/27 12:18:59;;;;;;;15.97;15.07;;;38.90;56.10;;;;;;5115909;27;20469;-74
2021/06/27 12:21:28;;;;;;;15.60;14.80;;;37.60;55.70;;;;;;5116575;27;20468;-75
2021/06/27 12:23:58;;;;;;;14.70;14.00;;;37.40;57.60;;;;;;5111656;27;20548;-74
2021/06/27 12:26:25;;;;;;;15.77;14.57;;;37.60;56.30;;;;;;5121294;27;21014;-74
2021/06/27 12:28:53;;;;;;;15.40;14.23;;;38.70;55.20;;;;;;5121894;27;20508;-74
2021/06/27 12:31:22;;;;;;;16.43;15.40;;;39.10;54.80;;;;;;5108520;27;20763;-74
2021/06/27 12:33:51;;;;;;;15.27;14.50;;;39.80;54.10;;;;;;5110899;27;20592;-74
2021/06/27 12:36:24;;;;;;;15.30;14.60;;;39.70;54.10;;;;;;5118536;27;20815;-73
2021/06/27 12:38:55;;;;;;;15.70;14.90;;;38.90;55.00;;;;;;5118575;27;20469;-76